createdAt,value
2022-11-02T00:03:00.101Z,10.20
2022-11-02T00:08:28.037Z,10.20
2022-11-02T00:13:56.576Z,10.10
2022-11-02T00:19:24.432Z,10.10
2022-11-02T00:25:06.868Z,10.00
2022-11-02T00:30:34.756Z,9.90
2022-11-02T00:36:02.828Z,9.90
2022-11-02T00:41:41.463Z,9.80
2022-11-02T00:47:11.759Z,9.80
2022-11-02T00:52:40.568Z,9.80
2022-11-02T00:58:24.116Z,9.70
2022-11-02T01:03:52.350Z,9.70
2022-11-02T01:09:21.776Z,9.70
2022-11-02T01:14:53.498Z,9.60
2022-11-02T01:20:21.554Z,9.60
2022-11-02T01:25:49.329Z,9.50
2022-11-02T01:31:17.151Z,9.40
2022-11-02T01:36:49.304Z,9.30
2022-11-02T01:42:24.787Z,9.30
2022-11-02T01:47:52.697Z,9.20
2022-11-02T01:53:20.912Z,9.10
2022-11-02T01:59:04.142Z,9.10
2022-11-02T02:04:33.445Z,9.10
2022-11-02T02:10:01.879Z,9.10
2022-11-02T02:16:03.395Z,9.10
2022-11-02T02:22:41.692Z,9.30
2022-11-02T02:28:41.328Z,9.30
2022-11-02T02:34:27.463Z,9.30
2022-11-02T02:40:22.600Z,9.30
2022-11-02T02:46:03.621Z,9.40
2022-11-02T02:51:33.673Z,9.40
2022-11-02T02:57:08.944Z,9.50
2022-11-02T03:02:40.322Z,9.60
2022-11-02T03:08:16.334Z,9.60
2022-11-02T03:13:44.927Z,9.80
2022-11-02T03:19:17.216Z,9.80
2022-11-02T03:25:08.632Z,9.90
2022-11-02T03:30:49.985Z,9.90
2022-11-02T03:36:33.826Z,10.10
2022-11-02T03:42:04.753Z,10.20
2022-11-02T03:47:37.836Z,10.40
2022-11-02T03:53:41.567Z,10.50
2022-11-02T03:59:09.797Z,10.60
2022-11-02T04:04:52.770Z,10.70
2022-11-02T04:10:24.517Z,10.80
2022-11-02T04:15:52.425Z,10.80
2022-11-02T04:21:20.324Z,10.80
2022-11-02T04:26:48.600Z,10.80
2022-11-02T04:32:37.269Z,10.70
2022-11-02T04:38:26.156Z,10.70
2022-11-02T04:43:56.028Z,10.70
2022-11-02T04:49:24.640Z,10.60
2022-11-02T04:54:53.900Z,10.60
2022-11-02T05:00:22.867Z,10.60
2022-11-02T05:05:55.751Z,10.60
2022-11-02T05:11:24.952Z,10.60
2022-11-02T05:16:53.672Z,10.60
2022-11-02T05:22:21.518Z,10.60
2022-11-02T05:27:49.548Z,10.60
2022-11-02T05:33:20.425Z,10.60
2022-11-02T05:38:52.824Z,10.60
2022-11-02T05:44:21.445Z,10.70
2022-11-02T05:49:49.480Z,10.70
2022-11-02T05:55:17.281Z,10.70
2022-11-02T06:00:45.219Z,10.70
2022-11-02T06:06:13.000Z,10.80
2022-11-02T06:11:40.853Z,10.80
2022-11-02T06:17:08.785Z,10.80
2022-11-02T06:22:41.680Z,10.80
2022-11-02T06:28:09.434Z,10.70
2022-11-02T06:33:37.354Z,10.80
2022-11-02T06:39:05.111Z,10.80
2022-11-02T06:44:33.334Z,10.80
2022-11-02T06:50:01.480Z,10.80
2022-11-02T06:55:30.247Z,10.80
2022-11-02T07:01:05.443Z,10.90
2022-11-02T07:06:35.775Z,10.90
2022-11-02T07:12:03.901Z,11.00
2022-11-02T07:17:32.407Z,11.20
2022-11-02T07:23:02.308Z,11.30
2022-11-02T07:28:30.279Z,11.40
2022-11-02T07:33:58.079Z,11.60
2022-11-02T07:39:26.293Z,11.80
2022-11-02T07:44:53.995Z,12.00
2022-11-02T07:50:25.035Z,12.20
2022-11-02T07:55:52.974Z,12.50
2022-11-02T08:01:20.728Z,12.70
2022-11-02T08:06:48.604Z,13.00
2022-11-02T08:12:16.425Z,13.20
2022-11-02T08:17:44.351Z,13.40
2022-11-02T08:23:12.995Z,13.50
2022-11-02T08:28:42.071Z,13.50
2022-11-02T08:34:12.057Z,13.60
2022-11-02T08:39:40.058Z,13.70
2022-11-02T08:45:08.624Z,13.70
2022-11-02T08:50:36.624Z,13.90
2022-11-02T08:56:04.744Z,14.20
2022-11-02T09:01:32.938Z,14.60
2022-11-02T09:07:00.789Z,14.70
2022-11-02T09:12:28.629Z,14.70
2022-11-02T09:17:56.398Z,14.60
2022-11-02T09:23:24.676Z,14.80
2022-11-02T09:28:52.471Z,15.10
2022-11-02T09:34:20.343Z,15.50
2022-11-02T09:39:48.200Z,16.00
2022-11-02T09:45:18.885Z,16.20
2022-11-02T09:50:53.476Z,16.20
2022-11-02T09:56:23.687Z,16.10
2022-11-02T10:02:16.233Z,16.00
2022-11-02T10:08:02.994Z,15.60
2022-11-02T10:13:48.228Z,15.40
2022-11-02T10:19:22.254Z,15.20
2022-11-02T10:24:53.679Z,15.20
2022-11-02T10:30:22.448Z,15.40
2022-11-02T10:42:03.776Z,15.40
2022-11-02T10:47:41.467Z,15.40
2022-11-02T10:59:16.545Z,15.40
2022-11-02T11:04:45.380Z,15.30
2022-11-02T11:10:16.451Z,15.40
2022-11-02T11:15:51.774Z,15.40
2022-11-02T11:21:19.565Z,15.50
2022-11-02T11:27:05.902Z,15.50
2022-11-02T11:32:35.341Z,15.60
2022-11-02T11:38:12.559Z,15.70
2022-11-02T11:43:41.093Z,15.90
2022-11-02T11:55:32.090Z,15.90
2022-11-02T12:01:12.438Z,15.90
2022-11-02T12:07:20.719Z,15.90
2022-11-02T12:13:34.670Z,15.90
2022-11-02T12:19:08.212Z,15.80
2022-11-02T12:25:05.111Z,15.70
2022-11-02T12:31:25.670Z,15.60
2022-11-02T12:37:40.554Z,15.50
2022-11-02T12:43:32.959Z,15.40
2022-11-02T12:49:19.188Z,15.20
2022-11-02T12:54:55.531Z,15.10
2022-11-02T13:00:24.220Z,15.00
2022-11-02T13:06:00.958Z,15.10
2022-11-02T13:11:39.358Z,15.10
2022-11-02T13:17:29.010Z,15.10
2022-11-02T13:29:27.229Z,15.40
2022-11-02T13:34:57.236Z,15.60
2022-11-02T13:40:33.310Z,15.80
2022-11-02T13:46:06.914Z,15.80
2022-11-02T13:52:02.006Z,15.60
2022-11-02T13:57:47.702Z,15.50
2022-11-02T14:03:28.283Z,15.30
2022-11-02T14:09:05.313Z,15.30
2022-11-02T14:14:33.238Z,15.30
2022-11-02T14:20:04.879Z,15.20
2022-11-02T14:25:54.707Z,15.50
2022-11-02T14:31:40.405Z,15.90
2022-11-02T14:37:41.408Z,15.80
2022-11-02T14:43:33.229Z,15.90
2022-11-02T14:49:02.553Z,16.00
2022-11-02T14:54:38.056Z,15.80
2022-11-02T15:00:17.938Z,15.60
2022-11-02T15:05:46.224Z,15.50
2022-11-02T15:11:58.164Z,15.50
2022-11-02T15:17:25.928Z,15.20
2022-11-02T15:23:47.302Z,14.90
2022-11-02T15:29:48.918Z,14.70
2022-11-02T15:35:23.882Z,14.50
2022-11-02T15:41:06.134Z,14.20
2022-11-02T15:46:40.301Z,14.00
2022-11-02T15:53:22.182Z,13.80
2022-11-02T15:59:44.746Z,13.60
2022-11-02T16:05:27.987Z,13.30
2022-11-02T16:11:13.382Z,13.10
2022-11-02T16:16:50.984Z,12.90
2022-11-02T16:22:26.259Z,12.70
2022-11-02T16:27:54.159Z,12.50
2022-11-02T16:33:21.998Z,12.40
2022-11-02T16:39:16.804Z,12.30
2022-11-02T16:45:01.468Z,12.10
2022-11-02T16:50:29.822Z,11.90
2022-11-02T16:56:02.806Z,11.80
2022-11-02T17:01:38.825Z,11.60
2022-11-02T17:07:23.493Z,11.50
2022-11-02T17:12:51.588Z,11.40
2022-11-02T17:18:22.519Z,11.20
2022-11-02T17:23:51.202Z,11.10
2022-11-02T17:29:25.066Z,10.90
2022-11-02T17:34:58.714Z,10.70
2022-11-02T17:40:26.721Z,10.60
2022-11-02T17:45:59.451Z,10.50
2022-11-02T17:51:27.415Z,10.30
2022-11-02T17:56:55.385Z,10.20
2022-11-02T18:02:23.331Z,10.10
2022-11-02T18:07:53.630Z,9.90
2022-11-02T18:13:23.979Z,9.80
2022-11-02T18:18:51.833Z,9.70
2022-11-02T18:24:19.660Z,9.60
2022-11-02T18:29:50.029Z,9.50
2022-11-02T18:35:20.397Z,9.40
2022-11-02T18:40:48.292Z,9.40
2022-11-02T18:46:16.176Z,9.20
2022-11-02T18:51:45.749Z,9.20
2022-11-02T18:57:13.553Z,9.10
2022-11-02T19:02:41.764Z,9.10
2022-11-02T19:08:29.043Z,9.00
2022-11-02T19:14:00.012Z,8.90
2022-11-02T19:19:38.852Z,8.90
2022-11-02T19:25:07.901Z,8.80
2022-11-02T19:30:38.419Z,8.70
2022-11-02T19:36:09.244Z,8.60
2022-11-02T19:41:44.633Z,8.50
2022-11-02T19:47:16.307Z,8.50
2022-11-02T19:52:48.495Z,8.40
2022-11-02T19:58:22.622Z,8.40
2022-11-02T20:03:52.257Z,8.30
2022-11-02T20:09:25.316Z,8.20
2022-11-02T20:15:02.923Z,8.10
2022-11-02T20:20:31.584Z,8.10
2022-11-02T20:26:05.308Z,8.00
2022-11-02T20:31:40.566Z,7.90
2022-11-02T20:37:12.876Z,7.90
2022-11-02T20:42:41.973Z,7.80
2022-11-02T20:48:13.104Z,7.80
2022-11-02T20:53:54.330Z,7.80
2022-11-02T20:59:22.971Z,7.70
2022-11-02T21:04:54.712Z,7.70
2022-11-02T21:10:25.755Z,7.60
2022-11-02T21:15:54.420Z,7.60
2022-11-02T21:21:22.531Z,7.60
2022-11-02T21:26:50.371Z,7.50
2022-11-02T21:32:18.153Z,7.50
2022-11-02T21:37:46.021Z,7.60
2022-11-02T21:43:13.831Z,7.50
2022-11-02T21:48:41.616Z,7.50
2022-11-02T21:54:09.538Z,7.40
2022-11-02T21:59:37.319Z,7.40
2022-11-02T22:05:05.467Z,7.30
2022-11-02T22:10:33.199Z,7.30
2022-11-02T22:16:12.629Z,7.30
2022-11-02T22:21:44.024Z,7.30
2022-11-02T22:27:12.033Z,7.20
2022-11-02T22:32:39.798Z,7.10
2022-11-02T22:38:27.283Z,7.10
2022-11-02T22:43:57.052Z,7.00
2022-11-02T22:49:26.258Z,7.00
2022-11-02T22:54:54.016Z,7.00
2022-11-02T23:00:21.900Z,6.90
2022-11-02T23:05:49.907Z,6.90
2022-11-02T23:11:24.246Z,6.80
2022-11-02T23:16:52.137Z,6.80
2022-11-02T23:22:32.160Z,6.70
2022-11-02T23:28:18.561Z,6.70
2022-11-02T23:33:46.359Z,6.60
2022-11-02T23:39:32.649Z,6.50
2022-11-02T23:45:00.532Z,6.50
2022-11-02T23:50:51.134Z,6.40
2022-11-02T23:56:37.273Z,6.40
